createdAt,value
2023-03-24T00:00:42.466Z,100107.73
2023-03-24T00:01:48.178Z,100100.95
2023-03-24T00:02:53.858Z,100102.97
2023-03-24T00:03:59.651Z,100100.63
2023-03-24T00:05:05.270Z,100100.89
2023-03-24T00:06:10.770Z,100100.15
2023-03-24T00:07:16.161Z,100106.25
2023-03-24T00:08:21.578Z,100110.48
2023-03-24T00:09:26.979Z,100102.38
2023-03-24T00:10:32.350Z,100103.71
2023-03-24T00:11:37.722Z,100102.45
2023-03-24T00:12:43.100Z,100102.56
2023-03-24T00:13:48.645Z,100103.79
2023-03-24T00:14:54.613Z,100105.13
2023-03-24T00:16:00.084Z,100106.98
2023-03-24T00:17:05.569Z,100106.58
2023-03-24T00:18:11.016Z,100102.78
2023-03-24T00:19:16.613Z,100105.23
2023-03-24T00:20:22.021Z,100106.47
2023-03-24T00:21:27.459Z,100103.64
2023-03-24T00:22:32.902Z,100104.39
2023-03-24T00:23:38.341Z,100107.59
2023-03-24T00:24:43.720Z,100105.31
2023-03-24T00:25:49.073Z,100099.22
2023-03-24T00:26:54.445Z,100101.7
2023-03-24T00:27:59.862Z,100108.48
2023-03-24T00:29:05.271Z,100097.88
2023-03-24T00:30:10.669Z,100100.97
2023-03-24T00:31:16.193Z,100099.3
2023-03-24T00:32:21.675Z,100096.7
2023-03-24T00:33:27.070Z,100088.44
2023-03-24T00:34:32.443Z,100092.45
2023-03-24T00:35:37.866Z,100095.22
2023-03-24T00:36:43.303Z,100097.56
2023-03-24T00:37:49.011Z,100090.34
2023-03-24T00:38:54.479Z,100091.94
2023-03-24T00:40:00.037Z,100085.77
2023-03-24T00:41:05.429Z,100081.23
2023-03-24T00:42:10.784Z,100083.24
2023-03-24T00:43:16.142Z,100075.05
2023-03-24T00:44:21.627Z,100074.05
2023-03-24T00:45:26.993Z,100072.7
2023-03-24T00:46:32.546Z,100078.73
2023-03-24T00:47:38.210Z,100071.59
2023-03-24T00:48:43.842Z,100070.52
2023-03-24T00:49:49.254Z,100069.77
2023-03-24T00:50:54.613Z,100072.04
2023-03-24T00:52:00.000Z,100070.59
2023-03-24T00:53:05.360Z,100069.59
2023-03-24T00:54:10.880Z,100070.11
2023-03-24T00:55:16.358Z,100066.24
2023-03-24T00:56:21.761Z,100058.38
2023-03-24T00:57:27.144Z,100068.16
2023-03-24T00:58:32.490Z,100060.13
2023-03-24T00:59:37.868Z,100062.07
2023-03-24T01:00:43.533Z,100054.87
2023-03-24T01:01:49.464Z,100061.08
2023-03-24T01:02:55.477Z,100058.81
2023-03-24T01:04:01.011Z,100062.56
2023-03-24T01:05:06.418Z,100054.63
2023-03-24T01:06:11.822Z,100056.98
2023-03-24T01:07:17.173Z,100048.42
2023-03-24T01:08:22.542Z,100046.06
2023-03-24T01:09:27.913Z,100042.41
2023-03-24T01:10:33.276Z,100047.28
2023-03-24T01:11:38.875Z,100053.28
2023-03-24T01:12:44.547Z,100048.82
2023-03-24T01:13:49.937Z,100047.67
2023-03-24T01:14:55.337Z,100045.25
2023-03-24T01:16:00.809Z,100044.67
2023-03-24T01:17:06.304Z,100044.8
2023-03-24T01:18:11.826Z,100046.25
2023-03-24T01:19:17.616Z,100045.48
2023-03-24T01:20:26.292Z,100054.7
2023-03-24T01:21:31.714Z,100056.45
2023-03-24T01:22:37.102Z,100055.52
2023-03-24T01:23:42.524Z,100051.78
2023-03-24T01:24:47.896Z,100048.34
2023-03-24T01:25:53.331Z,100044
2023-03-24T01:26:58.748Z,100045.09
2023-03-24T01:28:04.169Z,100040.37
2023-03-24T01:29:09.540Z,100036.03
2023-03-24T01:30:14.939Z,100041.8
2023-03-24T01:31:20.396Z,100037.78
2023-03-24T01:32:25.923Z,100032.02
2023-03-24T01:33:31.340Z,100042.23
2023-03-24T01:34:36.839Z,100047.01
2023-03-24T01:35:42.212Z,100045.94
2023-03-24T01:36:47.696Z,100050.44
2023-03-24T01:37:53.042Z,100042.33
2023-03-24T01:38:58.528Z,100049.02
2023-03-24T01:40:03.914Z,100044.81
2023-03-24T01:41:09.321Z,100042.06
2023-03-24T01:42:14.666Z,100044.33
2023-03-24T01:43:20.046Z,100041.4
2023-03-24T01:44:25.447Z,100030.94
2023-03-24T01:45:30.881Z,100023.84
2023-03-24T01:46:36.297Z,100031.76
2023-03-24T01:47:41.682Z,100030.02
2023-03-24T01:48:47.103Z,100017.3
2023-03-24T01:49:52.517Z,100017.63
2023-03-24T01:50:57.925Z,100025.06
2023-03-24T01:52:03.530Z,100024.17
2023-03-24T01:53:08.930Z,100019.3
2023-03-24T01:54:14.383Z,100014.22
2023-03-24T01:55:19.770Z,100016.04
2023-03-24T01:56:25.161Z,100014.63
2023-03-24T01:57:30.591Z,100014.13
2023-03-24T01:58:35.972Z,100017.82
2023-03-24T01:59:41.452Z,100015.36
2023-03-24T02:00:47.106Z,100016.13
2023-03-24T02:01:52.631Z,100018.97
2023-03-24T02:02:58.157Z,100012.2
2023-03-24T02:04:03.728Z,100017.96
2023-03-24T02:05:09.367Z,100013.13
2023-03-24T02:06:14.730Z,100013.45
2023-03-24T02:07:20.082Z,100014.36
2023-03-24T02:08:25.453Z,100003.64
2023-03-24T02:09:30.825Z,100005.09
2023-03-24T02:10:36.264Z,99999.3
2023-03-24T02:11:41.668Z,100000.97
2023-03-24T02:12:47.109Z,99995.88
2023-03-24T02:13:52.572Z,100002.08
2023-03-24T02:14:57.948Z,100000.75
2023-03-24T02:16:03.496Z,100001.64
2023-03-24T02:17:08.877Z,100000.83
2023-03-24T02:18:14.219Z,99993.05
2023-03-24T02:19:19.646Z,99995.47
2023-03-24T02:20:26.473Z,99994.4
2023-03-24T02:21:31.865Z,99996.81
2023-03-24T02:22:37.209Z,99993.06
2023-03-24T02:23:42.872Z,99987.19
2023-03-24T02:24:48.236Z,99983.34
2023-03-24T02:25:53.780Z,99982.57
2023-03-24T02:26:59.127Z,99987.38
2023-03-24T02:28:04.482Z,99984.29
2023-03-24T02:29:09.865Z,99988.11
2023-03-24T02:30:15.225Z,99983.69
2023-03-24T02:31:20.589Z,99983.02
2023-03-24T02:32:26.033Z,99992.87
2023-03-24T02:33:31.435Z,99980.08
2023-03-24T02:34:36.838Z,99980.49
2023-03-24T02:35:42.285Z,99988.17
2023-03-24T02:36:47.810Z,99980.14
2023-03-24T02:37:53.146Z,99984.23
2023-03-24T02:38:58.541Z,99986.92
2023-03-24T02:40:03.997Z,99980.33
2023-03-24T02:41:09.379Z,99983.75
2023-03-24T02:42:14.763Z,99985.09
2023-03-24T02:43:20.187Z,99978.88
2023-03-24T02:44:25.533Z,99975.72
2023-03-24T02:45:30.937Z,99971.7
2023-03-24T02:46:36.407Z,99970.85
2023-03-24T02:47:41.815Z,99967.95
2023-03-24T02:48:47.253Z,99973.72
2023-03-24T02:49:52.600Z,99970.19
2023-03-24T02:50:57.962Z,99971.45
2023-03-24T02:52:03.397Z,99966.09
2023-03-24T02:53:11.094Z,99973.2
2023-03-24T02:54:16.432Z,99964.93
2023-03-24T02:55:21.779Z,99962.73
2023-03-24T02:56:27.321Z,99961.81
2023-03-24T02:57:32.727Z,99965.42
2023-03-24T02:58:38.111Z,99968.17
2023-03-24T02:59:43.511Z,99970.03
2023-03-24T03:00:49.172Z,99964.67
2023-03-24T03:01:54.657Z,99964.84
2023-03-24T03:03:00.114Z,99965.03
2023-03-24T03:04:05.691Z,99965.63
2023-03-24T03:05:12.170Z,99966.03
2023-03-24T03:06:17.512Z,99962.7
2023-03-24T03:07:22.882Z,99953.73
2023-03-24T03:08:28.275Z,99957.27
2023-03-24T03:09:33.696Z,99958.62
2023-03-24T03:10:39.142Z,99961.05
2023-03-24T03:11:44.484Z,99949.73
2023-03-24T03:12:51.514Z,99947.31
2023-03-24T03:13:56.913Z,99943.95
2023-03-24T03:15:02.333Z,99945.89
2023-03-24T03:16:07.766Z,99946.24
2023-03-24T03:17:13.225Z,99950.42
2023-03-24T03:18:18.602Z,99939.55
2023-03-24T03:19:23.975Z,99949.52
2023-03-24T03:20:29.458Z,99941.95
2023-03-24T03:21:34.803Z,99936.2
2023-03-24T03:22:40.219Z,99940.46
2023-03-24T03:23:45.568Z,99934.09
2023-03-24T03:24:50.914Z,99937.67
2023-03-24T03:25:56.263Z,99933.77
2023-03-24T03:27:01.603Z,99934.09
2023-03-24T03:28:07.021Z,99921.53
2023-03-24T03:29:12.362Z,99926.06
2023-03-24T03:30:18.400Z,99927.97
2023-03-24T03:31:23.898Z,99925.41
2023-03-24T03:32:29.359Z,99925.16
2023-03-24T03:33:34.772Z,99927.31
2023-03-24T03:34:40.144Z,99918.05
2023-03-24T03:35:45.907Z,99916.11
2023-03-24T03:36:51.790Z,99913.44
2023-03-24T03:37:57.180Z,99915.27
2023-03-24T03:39:02.578Z,99914.94
2023-03-24T03:40:08.005Z,99916.6
2023-03-24T03:41:13.343Z,99916.36
2023-03-24T03:42:18.703Z,99911.25
2023-03-24T03:43:24.096Z,99907.23
2023-03-24T03:44:29.444Z,99912.51
2023-03-24T03:45:34.808Z,99909.58
2023-03-24T03:46:40.308Z,99906.41
2023-03-24T03:47:45.763Z,99903.68
2023-03-24T03:48:51.173Z,99897.56
2023-03-24T03:49:56.549Z,99896.55
2023-03-24T03:51:14.721Z,99892.45
2023-03-24T03:52:20.358Z,99890.78
2023-03-24T03:53:25.743Z,99885.68
2023-03-24T03:54:31.079Z,99888.95
2023-03-24T03:55:36.464Z,99888.69
2023-03-24T03:56:41.846Z,99885.92
2023-03-24T03:57:47.255Z,99895.98
2023-03-24T03:58:52.578Z,99886.28
2023-03-24T04:00:00.187Z,99884.42
2023-03-24T04:01:05.528Z,99878.91
2023-03-24T04:02:10.916Z,99880.25
2023-03-24T04:03:16.607Z,99876.58
2023-03-24T04:04:22.128Z,99872.97
2023-03-24T04:05:27.622Z,99878.66
2023-03-24T04:06:33.079Z,99883.6
2023-03-24T04:07:38.453Z,99887.29
2023-03-24T04:08:44.822Z,99887.37
2023-03-24T04:09:50.180Z,99884.77
2023-03-24T04:10:55.521Z,99888.98
2023-03-24T04:12:00.860Z,99893.08
2023-03-24T04:13:06.205Z,99886.84
2023-03-24T04:14:11.559Z,99888.78
2023-03-24T04:15:16.947Z,99889.03
2023-03-24T04:16:22.398Z,99888.52
2023-03-24T04:17:27.993Z,99886.69
2023-03-24T04:18:33.505Z,99882.67
2023-03-24T04:19:38.844Z,99887.7
2023-03-24T04:20:44.232Z,99884.27
2023-03-24T04:21:49.565Z,99887.7
2023-03-24T04:22:54.894Z,99880.25
2023-03-24T04:24:00.320Z,99881.47
2023-03-24T04:25:05.670Z,99875.9
2023-03-24T04:26:11.036Z,99872.7
2023-03-24T04:27:16.406Z,99861.64
2023-03-24T04:28:21.846Z,99858.03
2023-03-24T04:29:27.320Z,99854.48
2023-03-24T04:30:32.651Z,99857.16
2023-03-24T04:31:38.091Z,99863.77
2023-03-24T04:32:43.832Z,99854.64
2023-03-24T04:33:49.272Z,99855.3
2023-03-24T04:34:54.700Z,99862.66
2023-03-24T04:36:00.121Z,99856.72
2023-03-24T04:37:05.821Z,99857.16
2023-03-24T04:38:11.175Z,99855.05
2023-03-24T04:39:16.518Z,99862.19
2023-03-24T04:40:21.935Z,99852.7
2023-03-24T04:41:27.371Z,99849.21
2023-03-24T04:42:32.716Z,99857.16
2023-03-24T04:43:38.233Z,99857.56
2023-03-24T04:44:43.772Z,99847.35
2023-03-24T04:45:49.545Z,99847.27
2023-03-24T04:46:57.338Z,99856.23
2023-03-24T04:48:02.876Z,99856.23
2023-03-24T04:49:08.376Z,99858.83
2023-03-24T04:50:13.727Z,99848.61
2023-03-24T04:51:19.142Z,99852.7
2023-03-24T04:52:24.517Z,99850.8
2023-03-24T04:53:29.904Z,99848.12
2023-03-24T04:54:35.248Z,99842.77
2023-03-24T04:55:40.574Z,99841.31
2023-03-24T04:56:46.204Z,99844.62
2023-03-24T04:57:52.007Z,99837.62
2023-03-24T04:58:57.324Z,99839.65
2023-03-24T05:00:02.780Z,99844.46
2023-03-24T05:01:08.246Z,99842.82
2023-03-24T05:02:13.941Z,99841.31
2023-03-24T05:03:19.330Z,99846.97
2023-03-24T05:04:24.698Z,99839.87
2023-03-24T05:05:30.071Z,99843.01
2023-03-24T05:06:35.435Z,99832.92
2023-03-24T05:07:40.821Z,99833.42
2023-03-24T05:08:46.190Z,99827.14
2023-03-24T05:09:51.591Z,99827.59
2023-03-24T05:10:57.040Z,99827.57
2023-03-24T05:12:03.391Z,99825.5
2023-03-24T05:13:08.746Z,99824.86
2023-03-24T05:14:14.065Z,99824.67
2023-03-24T05:15:19.395Z,99821.95
2023-03-24T05:16:24.863Z,99826.84
2023-03-24T05:17:30.340Z,99821.13
2023-03-24T05:18:35.760Z,99816.26
2023-03-24T05:19:41.102Z,99817.92
2023-03-24T05:20:46.484Z,99812.77
2023-03-24T05:21:51.854Z,99816.63
2023-03-24T05:22:57.259Z,99819.72
2023-03-24T05:24:02.579Z,99817.2
2023-03-24T05:25:07.933Z,99812.16
2023-03-24T05:26:13.341Z,99812.98
2023-03-24T05:27:18.676Z,99818.26
2023-03-24T05:28:24.043Z,99814.16
2023-03-24T05:29:29.436Z,99816.72
2023-03-24T05:30:34.890Z,99813.88
2023-03-24T05:31:40.347Z,99810.27
2023-03-24T05:32:48.559Z,99812.66
2023-03-24T05:33:53.960Z,99811.41
2023-03-24T05:34:59.327Z,99808.56
2023-03-24T05:36:04.833Z,99807.31
2023-03-24T05:37:10.260Z,99801.95
2023-03-24T05:38:15.745Z,99809.98
2023-03-24T05:39:21.103Z,99811.85
2023-03-24T05:40:26.566Z,99809.77
2023-03-24T05:41:31.914Z,99803.98
2023-03-24T05:42:37.266Z,99804.58
2023-03-24T05:43:42.700Z,99803.57
2023-03-24T05:44:48.064Z,99801.58
2023-03-24T05:45:53.476Z,99798.98
2023-03-24T05:46:58.886Z,99800.44
2023-03-24T05:48:04.327Z,99800.19
2023-03-24T05:49:09.755Z,99797.52
2023-03-24T05:50:15.145Z,99788.83
2023-03-24T05:51:20.489Z,99796.21
2023-03-24T05:52:28.837Z,99790.44
2023-03-24T05:53:34.353Z,99790.61
2023-03-24T05:54:39.730Z,99791.62
2023-03-24T05:55:45.375Z,99785.45
2023-03-24T05:56:50.922Z,99786.55
2023-03-24T05:57:56.395Z,99784.47
2023-03-24T05:59:04.367Z,99778.51
2023-03-24T06:00:09.774Z,99775.83
2023-03-24T06:01:15.144Z,99774.69
2023-03-24T06:02:20.637Z,99774.77
2023-03-24T06:03:26.404Z,99779.48
2023-03-24T06:04:32.148Z,99780.81
2023-03-24T06:05:37.626Z,99779.06
2023-03-24T06:06:42.962Z,99775.73
2023-03-24T06:07:48.360Z,99784.19
2023-03-24T06:08:53.692Z,99783.86
2023-03-24T06:09:59.105Z,99787.95
2023-03-24T06:11:04.481Z,99790.06
2023-03-24T06:12:12.343Z,99787.14
2023-03-24T06:13:17.754Z,99784.82
2023-03-24T06:14:23.102Z,99781.45
2023-03-24T06:15:28.498Z,99785.55
2023-03-24T06:16:34.081Z,99785.39
2023-03-24T06:17:39.634Z,99781.48
2023-03-24T06:18:45.023Z,99787.75
2023-03-24T06:19:50.401Z,99788.35
2023-03-24T06:20:55.735Z,99785.95
2023-03-24T06:22:01.144Z,99783.03
2023-03-24T06:23:06.503Z,99785.13
2023-03-24T06:24:11.852Z,99786.72
2023-03-24T06:25:17.222Z,99787.16
2023-03-24T06:26:22.603Z,99788.66
2023-03-24T06:27:27.983Z,99789.59
2023-03-24T06:28:33.328Z,99787.19
2023-03-24T06:29:39.803Z,99783.26
2023-03-24T06:30:45.251Z,99786.91
2023-03-24T06:31:50.864Z,99780.14
2023-03-24T06:32:56.328Z,99780.3
2023-03-24T06:34:01.820Z,99788.17
2023-03-24T06:35:07.191Z,99782.57
2023-03-24T06:36:12.598Z,99782.33
2023-03-24T06:37:17.954Z,99777.22
2023-03-24T06:38:24.333Z,99785.58
2023-03-24T06:39:30.683Z,99788.06
2023-03-24T06:40:36.074Z,99780.02
2023-03-24T06:41:41.443Z,99767.56
2023-03-24T06:42:46.830Z,99775.35
2023-03-24T06:43:52.203Z,99774.02
2023-03-24T06:44:57.560Z,99776.2
2023-03-24T06:46:03.029Z,99779.2
2023-03-24T06:47:08.474Z,99769.67
2023-03-24T06:48:14.083Z,99779.7
2023-03-24T06:49:19.556Z,99779.81
2023-03-24T06:50:25.038Z,99778.69
2023-03-24T06:51:30.427Z,99776.2
2023-03-24T06:52:35.765Z,99769.31
2023-03-24T06:53:41.187Z,99768.77
2023-03-24T06:54:46.624Z,99772.67
2023-03-24T06:55:52.024Z,99770.56
2023-03-24T06:56:57.474Z,99768.22
2023-03-24T06:58:02.936Z,99753.08
2023-03-24T06:59:08.278Z,99754.5
2023-03-24T07:00:13.681Z,99757.86
2023-03-24T07:01:19.076Z,99759.94
2023-03-24T07:02:24.564Z,99762.21
2023-03-24T07:03:30.513Z,99758.27
2023-03-24T07:04:36.032Z,99757.46
2023-03-24T07:05:41.384Z,99756.86
2023-03-24T07:07:28.254Z,99746.75
2023-03-24T07:08:58.357Z,99744.35
2023-03-24T07:10:03.697Z,99742.41
2023-03-24T07:11:09.076Z,99732.7
2023-03-24T07:12:16.174Z,99735.71
2023-03-24T07:13:21.569Z,99738.06
2023-03-24T07:14:26.964Z,99747.84
2023-03-24T07:15:32.328Z,99755.22
2023-03-24T07:16:37.753Z,99747.71
2023-03-24T07:17:43.253Z,99751.53
2023-03-24T07:18:48.644Z,99751.73
2023-03-24T07:19:53.997Z,99746.78
2023-03-24T07:20:59.383Z,99755.91
2023-03-24T07:22:04.732Z,99751.98
2023-03-24T07:23:10.076Z,99750.23
2023-03-24T07:24:15.543Z,99747.06
2023-03-24T07:25:20.962Z,99750.88
2023-03-24T07:26:26.325Z,99754.41
2023-03-24T07:27:31.677Z,99745.2
2023-03-24T07:28:37.041Z,99746.08
2023-03-24T07:29:42.365Z,99755.81
2023-03-24T07:30:48.011Z,99748.59
2023-03-24T07:31:54.542Z,99745.92
2023-03-24T07:33:00.045Z,99740.4
2023-03-24T07:34:05.436Z,99742.84
2023-03-24T07:35:11.115Z,99736.34
2023-03-24T07:36:16.729Z,99738.73
2023-03-24T07:37:22.128Z,99746.84
2023-03-24T07:38:27.457Z,99739.59
2023-03-24T07:39:32.806Z,99745.88
2023-03-24T07:40:38.457Z,99732.89
2023-03-24T07:41:43.821Z,99731.06
2023-03-24T07:42:49.198Z,99738.16
2023-03-24T07:43:54.625Z,99733.17
2023-03-24T07:44:59.956Z,99732.48
2023-03-24T07:46:05.604Z,99732.35
2023-03-24T07:47:14.310Z,99731.5
2023-03-24T07:48:19.723Z,99725.88
2023-03-24T07:49:25.175Z,99728.83
2023-03-24T07:50:30.576Z,99728.75
2023-03-24T07:51:41.173Z,99722.17
2023-03-24T07:52:48.537Z,99722.69
2023-03-24T07:53:53.910Z,99726.27
2023-03-24T07:54:59.258Z,99726.37
2023-03-24T07:56:04.674Z,99736.73
2023-03-24T07:57:12.451Z,99730.94
2023-03-24T07:58:17.980Z,99731.45
2023-03-24T07:59:24.317Z,99734.05
2023-03-24T08:00:31.925Z,99739.16
2023-03-24T08:01:37.332Z,99722.86
2023-03-24T08:02:43.265Z,99725.04
2023-03-24T08:03:49.312Z,99733.77
2023-03-24T08:04:55.160Z,99733.04
2023-03-24T08:06:00.567Z,99728.65
2023-03-24T08:07:05.944Z,99733.75
2023-03-24T08:08:11.301Z,99728.73
2023-03-24T08:09:16.649Z,99724.89
2023-03-24T08:10:21.991Z,99724.2
2023-03-24T08:11:27.386Z,99731.47
2023-03-24T08:12:33.270Z,99731.31
2023-03-24T08:13:38.638Z,99726.03
2023-03-24T08:14:43.986Z,99723.16
2023-03-24T08:15:49.787Z,99720.08
2023-03-24T08:16:55.321Z,99725.76
2023-03-24T08:18:00.820Z,99708.27
2023-03-24T08:19:06.258Z,99719.31
2023-03-24T08:20:11.578Z,99708.92
2023-03-24T08:21:16.898Z,99711.93
2023-03-24T08:22:22.234Z,99709.47
2023-03-24T08:23:27.567Z,99699.41
2023-03-24T08:24:32.910Z,99705.53
2023-03-24T08:25:38.394Z,99703.17
2023-03-24T08:26:46.328Z,99700.7
2023-03-24T08:27:51.703Z,99709.59
2023-03-24T08:28:57.092Z,99695.13
2023-03-24T08:30:02.517Z,99699.03
2023-03-24T08:31:07.937Z,99695.78
2023-03-24T08:32:13.692Z,99695.17
2023-03-24T08:33:19.126Z,99691.16
2023-03-24T08:34:24.490Z,99689.54
2023-03-24T08:35:29.940Z,99698.72
2023-03-24T08:36:35.440Z,99684.75
2023-03-24T08:37:40.828Z,99687.14
2023-03-24T08:38:46.199Z,99690.97
2023-03-24T08:39:51.552Z,99689.13
2023-03-24T08:40:56.898Z,99674.81
2023-03-24T08:42:02.237Z,99681.92
2023-03-24T08:43:07.573Z,99688.61
2023-03-24T08:44:12.954Z,99686.7
2023-03-24T08:45:18.323Z,99681.83
2023-03-24T08:46:23.915Z,99675.33
2023-03-24T08:47:29.483Z,99676.23
2023-03-24T08:48:34.907Z,99667.38
2023-03-24T08:49:40.263Z,99667.38
2023-03-24T08:50:45.598Z,99668.89
2023-03-24T08:51:50.966Z,99662.63
2023-03-24T08:52:58.021Z,99657.53
2023-03-24T08:54:03.353Z,99653.62
2023-03-24T08:55:08.728Z,99644.75
2023-03-24T08:56:14.092Z,99650.7
2023-03-24T08:57:19.488Z,99647.02
2023-03-24T08:58:24.865Z,99657.73
2023-03-24T08:59:30.203Z,99654.23
2023-03-24T09:00:35.688Z,99654.31
2023-03-24T09:01:41.111Z,99653.06
2023-03-24T09:02:46.717Z,99659.27
2023-03-24T09:03:52.224Z,99649.98
2023-03-24T09:04:57.689Z,99651.73
2023-03-24T09:06:03.095Z,99652.13
2023-03-24T09:07:08.430Z,99645.64
2023-03-24T09:08:13.810Z,99645.55
2023-03-24T09:09:19.307Z,99650.99
2023-03-24T09:10:24.678Z,99655.3
2023-03-24T09:11:30.057Z,99646.82
2023-03-24T09:12:35.393Z,99646.24
2023-03-24T09:13:40.808Z,99641.58
2023-03-24T09:14:46.156Z,99646.83
2023-03-24T09:15:52.445Z,99637.9
2023-03-24T09:16:57.968Z,99638.05
2023-03-24T09:18:03.457Z,99639.63
2023-03-24T09:19:08.894Z,99645.31
2023-03-24T09:20:14.258Z,99643.24
2023-03-24T09:21:19.606Z,99638.7
2023-03-24T09:22:24.994Z,99639.63
2023-03-24T09:23:30.416Z,99636.88
2023-03-24T09:24:35.763Z,99636.02
2023-03-24T09:25:41.118Z,99632.94
2023-03-24T09:26:46.456Z,99628.08
2023-03-24T09:27:51.835Z,99620.56
2023-03-24T09:28:57.206Z,99629.66
2023-03-24T09:30:02.617Z,99623.56
2023-03-24T09:31:08.112Z,99625.64
2023-03-24T09:32:13.512Z,99622.03
2023-03-24T09:33:18.934Z,99631.4
2023-03-24T09:34:24.288Z,99623.37
2023-03-24T09:35:29.642Z,99627.5
2023-03-24T09:36:35.141Z,99611.43
2023-03-24T09:37:40.505Z,99613.42
2023-03-24T09:38:45.838Z,99619.67
2023-03-24T09:39:51.190Z,99620.11
2023-03-24T09:40:56.562Z,99620.52
2023-03-24T09:42:01.944Z,99612.48
2023-03-24T09:43:07.316Z,99609.41
2023-03-24T09:44:12.657Z,99614.92
2023-03-24T09:45:18.081Z,99612.33
2023-03-24T09:46:23.471Z,99620.97
2023-03-24T09:47:28.918Z,99608.31
2023-03-24T09:48:34.325Z,99612.94
2023-03-24T09:49:39.705Z,99612.01
2023-03-24T09:50:45.062Z,99617.8
2023-03-24T09:51:50.461Z,99601.41
2023-03-24T09:52:55.819Z,99602.07
2023-03-24T09:54:01.178Z,99608.66
2023-03-24T09:55:06.638Z,99598.95
2023-03-24T09:56:12.118Z,99607.42
2023-03-24T09:57:17.510Z,99604.52
2023-03-24T09:58:22.993Z,99608.53
2023-03-24T09:59:28.340Z,99607.52
2023-03-24T10:00:33.749Z,99608.84
2023-03-24T10:01:39.135Z,99603.58
2023-03-24T10:02:44.821Z,99596.39
2023-03-24T10:03:50.601Z,99592.46
2023-03-24T10:04:56.108Z,99590.59
2023-03-24T10:06:01.474Z,99594.41
2023-03-24T10:07:06.793Z,99593.23
2023-03-24T10:08:12.160Z,99591.81
2023-03-24T10:09:17.587Z,99602.44
2023-03-24T10:10:22.943Z,99601.51
2023-03-24T10:11:28.308Z,99603.78
2023-03-24T10:12:33.642Z,99594.08
2023-03-24T10:13:39.102Z,99606.02
2023-03-24T10:14:44.435Z,99599.23
2023-03-24T10:15:49.821Z,99595.31
2023-03-24T10:16:55.686Z,99595.83
2023-03-24T10:18:01.442Z,99599.84
2023-03-24T10:19:06.936Z,99591.81
2023-03-24T10:20:14.540Z,99593.23
2023-03-24T10:21:19.926Z,99594.34
2023-03-24T10:22:25.294Z,99593.44
2023-03-24T10:23:30.649Z,99598.35
2023-03-24T10:24:39.159Z,99595.47
2023-03-24T10:25:44.501Z,99596.69
2023-03-24T10:26:50.124Z,99584.19
2023-03-24T10:27:55.480Z,99590.28
2023-03-24T10:29:00.874Z,99587.52
2023-03-24T10:30:06.226Z,99581.76
2023-03-24T10:31:11.664Z,99589.05
2023-03-24T10:32:17.312Z,99576.77
2023-03-24T10:33:22.718Z,99584.77
2023-03-24T10:34:30.302Z,99589.47
2023-03-24T10:35:35.730Z,99583.46
2023-03-24T10:36:41.206Z,99578.92
2023-03-24T10:37:46.614Z,99588.17
2023-03-24T10:38:51.991Z,99576.45
2023-03-24T10:39:57.357Z,99577.09
2023-03-24T10:41:02.737Z,99581.52
2023-03-24T10:42:08.602Z,99574.3
2023-03-24T10:43:14.004Z,99578.97
2023-03-24T10:44:19.343Z,99577.55
2023-03-24T10:45:24.780Z,99577.55
2023-03-24T10:46:30.242Z,99582.41
2023-03-24T10:47:35.856Z,99576.36
2023-03-24T10:48:41.284Z,99572.75
2023-03-24T10:49:46.614Z,99575.34
2023-03-24T10:50:51.957Z,99572.99
2023-03-24T10:51:57.349Z,99572.84
2023-03-24T10:53:02.707Z,99572.43
2023-03-24T10:54:08.118Z,99573.57
2023-03-24T10:55:13.562Z,99580.22
2023-03-24T10:56:19.172Z,99574.46
2023-03-24T10:57:24.539Z,99576.73
2023-03-24T10:58:29.906Z,99574.26
2023-03-24T10:59:35.280Z,99579.36
2023-03-24T11:00:43.079Z,99578.02
2023-03-24T11:01:48.872Z,99574.01
2023-03-24T11:02:54.519Z,99575.55
2023-03-24T11:04:00.139Z,99579.73
2023-03-24T11:05:05.496Z,99573.84
2023-03-24T11:06:10.864Z,99576.68
2023-03-24T11:07:16.224Z,99575.34
2023-03-24T11:08:21.583Z,99571.33
2023-03-24T11:09:26.958Z,99586.27
2023-03-24T11:10:32.352Z,99577.73
2023-03-24T11:11:37.720Z,99575.23
2023-03-24T11:12:43.065Z,99577.91
2023-03-24T11:13:48.452Z,99581.11
2023-03-24T11:14:53.790Z,99576.77
2023-03-24T11:15:59.173Z,99578.11
2023-03-24T11:17:04.655Z,99575.92
2023-03-24T11:18:10.208Z,99585.53
2023-03-24T11:19:20.985Z,99580.09
2023-03-24T11:20:27.574Z,99575.34
2023-03-24T11:21:32.993Z,99573.16
2023-03-24T11:22:40.576Z,99575.34
2023-03-24T11:23:45.982Z,99577.5
2023-03-24T11:24:51.360Z,99574.82
2023-03-24T11:25:56.698Z,99576.31
2023-03-24T11:27:02.347Z,99580.33
2023-03-24T11:28:07.771Z,99571.28
2023-03-24T11:29:13.187Z,99564.06
2023-03-24T11:30:18.614Z,99575.53
2023-03-24T11:31:24.059Z,99567.09
2023-03-24T11:32:29.622Z,99568.27
2023-03-24T11:33:37.282Z,99567.01
2023-03-24T11:34:42.644Z,99570.18
2023-03-24T11:36:05.805Z,99568.16
2023-03-24T11:37:11.995Z,99560.01
2023-03-24T11:38:17.381Z,99562.81
2023-03-24T11:39:22.776Z,99554.66
2023-03-24T11:40:28.324Z,99558.99
2023-03-24T11:41:33.661Z,99561.52
2023-03-24T11:42:39.001Z,99557.73
2023-03-24T11:43:44.391Z,99552.91
2023-03-24T11:44:49.781Z,99553.23
2023-03-24T11:45:55.217Z,99552.91
2023-03-24T11:47:00.606Z,99551.89
2023-03-24T11:48:06.079Z,99551.89
2023-03-24T11:49:11.476Z,99542.36
2023-03-24T11:50:16.863Z,99549.63
2023-03-24T11:51:22.269Z,99545.93
2023-03-24T11:52:27.655Z,99540.98
2023-03-24T11:53:33.101Z,99537.05
2023-03-24T11:54:38.490Z,99538.18
2023-03-24T11:55:43.822Z,99528.48
2023-03-24T11:56:49.356Z,99532.91
2023-03-24T11:57:54.824Z,99530.31
2023-03-24T11:59:00.188Z,99533.92
2023-03-24T12:00:05.527Z,99539.66
2023-03-24T12:01:10.874Z,99535.27
2023-03-24T12:02:16.260Z,99532.03
2023-03-24T12:03:21.899Z,99525.25
2023-03-24T12:04:27.428Z,99529.03
2023-03-24T12:05:33.057Z,99531.3
2023-03-24T12:06:38.455Z,99529.14
2023-03-24T12:07:43.791Z,99536.73
2023-03-24T12:08:49.228Z,99528.3
2023-03-24T12:09:54.716Z,99514.59
2023-03-24T12:11:00.155Z,99531.21
2023-03-24T12:12:09.790Z,99534.02
2023-03-24T12:13:33.414Z,99538.64
2023-03-24T12:14:38.794Z,99519.69
2023-03-24T12:15:44.225Z,99517.02
2023-03-24T12:16:49.684Z,99514.83
2023-03-24T12:17:55.148Z,99510.81
2023-03-24T12:19:00.729Z,99521.92
2023-03-24T12:20:06.067Z,99518.15
2023-03-24T12:21:11.449Z,99508.66
2023-03-24T12:22:16.856Z,99518.03
2023-03-24T12:23:22.252Z,99517.22
2023-03-24T12:24:27.653Z,99523.5
2023-03-24T12:25:33.022Z,99508.45
2023-03-24T12:26:38.366Z,99518.11
2023-03-24T12:27:43.728Z,99519.53
2023-03-24T12:28:49.077Z,99513.66
2023-03-24T12:29:54.466Z,99519.02
2023-03-24T12:30:59.890Z,99527.36
2023-03-24T12:32:05.339Z,99522.16
2023-03-24T12:33:10.674Z,99517.27
2023-03-24T12:34:15.997Z,99525.82
2023-03-24T12:35:21.410Z,99531.3
2023-03-24T12:36:26.839Z,99516.08
2023-03-24T12:37:32.235Z,99519.25
2023-03-24T12:38:37.608Z,99518.92
2023-03-24T12:39:45.407Z,99512.92
2023-03-24T12:40:50.763Z,99520.08
2023-03-24T12:41:56.120Z,99533.29
2023-03-24T12:43:01.498Z,99528.66
2023-03-24T12:44:06.854Z,99525.55
2023-03-24T12:45:12.205Z,99512.48
2023-03-24T12:46:17.724Z,99512.56
2023-03-24T12:47:23.166Z,99515.94
2023-03-24T12:48:28.640Z,99525.22
2023-03-24T12:49:34.030Z,99527.34